Time;durP1;ratioP1;P1;durP2;ratioP2;P2;SDS_P1;SDS_P2;PMS_P1;PMS_P2;Temp;Humidity;BMP_temperature;BMP_pressure;BME280_temperature;BME280_humidity;BME280_pressure;Samples;Min_cycle;Max_cycle;Signal;HPM_P1;HPM_P2
2022/11/07 00:02:25;;;;;;;0.82;0.80;;;18.10;52.70;;;;;;5115719;28;20044;-11
2022/11/07 00:04:50;;;;;;;1.15;1.00;;;18.10;52.70;;;;;;5115771;28;20050;-11
2022/11/07 00:07:16;;;;;;;0.88;0.80;;;18.10;52.70;;;;;;5115620;28;20058;-11
2022/11/07 00:09:41;;;;;;;0.77;0.77;;;18.10;52.70;;;;;;5115638;28;20551;-11
2022/11/07 00:12:07;;;;;;;0.70;0.70;;;18.10;52.70;;;;;;5116041;28;20437;-11
2022/11/07 00:14:33;;;;;;;0.93;0.80;;;18.10;52.70;;;;;;5115581;28;20051;-11
2022/11/07 00:16:58;;;;;;;0.77;0.77;;;18.00;52.60;;;;;;5115542;28;20048;-11
2022/11/07 00:19:24;;;;;;;1.08;0.70;;;18.10;52.70;;;;;;5115143;28;20053;-11
2022/11/07 00:21:50;;;;;;;0.80;0.80;;;18.10;52.70;;;;;;5115560;28;20051;-11
2022/11/07 00:24:16;;;;;;;0.70;0.70;;;18.10;52.70;;;;;;5115479;28;20135;-11
2022/11/07 00:26:43;;;;;;;0.60;0.60;;;18.10;52.70;;;;;;5115382;28;20499;-11
2022/11/07 00:29:18;;;;;;;0.98;0.82;;;18.10;52.70;;;;;;5096942;28;20052;-11
2022/11/07 00:31:44;;;;;;;1.25;0.85;;;18.10;52.70;;;;;;5115567;28;20060;-11
2022/11/07 00:34:10;;;;;;;0.80;0.80;;;18.10;52.60;;;;;;5115224;28;20073;-11
2022/11/07 00:36:36;;;;;;;0.90;0.90;;;18.10;52.70;;;;;;5115273;28;20498;-11
2022/11/07 00:39:03;;;;;;;1.02;0.98;;;18.10;52.70;;;;;;5114957;28;20484;-11
2022/11/07 00:41:29;;;;;;;0.80;0.80;;;18.10;52.70;;;;;;5115180;28;20051;-11
2022/11/07 00:43:55;;;;;;;0.80;0.75;;;18.00;52.60;;;;;;5115164;28;20056;-11
2022/11/07 00:46:22;;;;;;;0.80;0.80;;;18.10;52.70;;;;;;5115065;28;20472;-11
2022/11/07 00:48:49;;;;;;;0.95;0.90;;;18.10;52.70;;;;;;5114910;28;20078;-11
2022/11/07 00:51:20;;;;;;;1.05;0.98;;;18.10;52.70;;;;;;5115427;28;20535;-11
2022/11/07 00:53:47;;;;;;;1.10;0.98;;;18.10;52.70;;;;;;5096698;28;20064;-11
2022/11/07 00:56:14;;;;;;;0.80;0.80;;;18.10;52.70;;;;;;5114883;28;20395;-11
2022/11/07 00:58:41;;;;;;;1.42;1.08;;;18.10;52.70;;;;;;5094825;28;20059;-11
2022/11/07 01:01:22;;;;;;;0.95;0.90;;;18.10;52.70;;;;;;5115433;28;20100;-11
2022/11/07 01:06:36;;;;;;;0.60;0.60;;;18.10;52.70;;;;;;5114834;28;20082;-11
2022/11/07 01:09:04;;;;;;;0.93;0.70;;;18.10;52.70;;;;;;5115047;28;20381;-11
2022/11/07 01:11:31;;;;;;;0.60;0.60;;;18.00;52.60;;;;;;5115027;28;20139;-11
2022/11/07 01:13:59;;;;;;;0.80;0.80;;;18.10;52.70;;;;;;5114674;28;20050;-11
2022/11/07 01:16:27;;;;;;;0.80;0.80;;;18.10;52.70;;;;;;5114902;28;20059;-11
2022/11/07 01:18:53;;;;;;;0.60;0.60;;;18.10;52.70;;;;;;5114389;28;20070;-11
2022/11/07 01:21:19;;;;;;;0.93;0.80;;;18.00;52.60;;;;;;5114490;28;20051;-11
2022/11/07 01:23:48;;;;;;;0.95;0.93;;;18.10;52.70;;;;;;5114849;28;20050;-11
2022/11/07 01:26:15;;;;;;;0.80;0.80;;;18.00;52.60;;;;;;5114715;28;20089;-11
2022/11/07 01:28:40;;;;;;;0.90;0.90;;;18.10;52.70;;;;;;5114173;28;20047;-11
2022/11/07 01:31:09;;;;;;;0.90;0.80;;;18.00;52.60;;;;;;5113944;28;20514;-11
2022/11/07 01:33:36;;;;;;;0.60;0.60;;;18.00;52.60;;;;;;5114515;28;20056;-11
2022/11/07 01:36:03;;;;;;;0.65;0.60;;;18.00;52.60;;;;;;5114301;28;20487;-11
2022/11/07 01:38:28;;;;;;;1.10;1.00;;;18.10;52.70;;;;;;5113999;28;20067;-11
2022/11/07 01:44:03;;;;;;;0.82;0.82;;;18.00;52.60;;;;;;5114244;28;20538;-11
2022/11/07 01:46:33;;;;;;;1.27;1.08;;;18.00;52.60;;;;;;5070277;28;20050;-11
2022/11/07 01:49:11;;;;;;;0.80;0.80;;;18.00;52.60;;;;;;5114001;28;20075;-11
2022/11/07 01:51:42;;;;;;;1.00;0.90;;;18.10;52.70;;;;;;5114162;28;20488;-11
2022/11/07 01:54:09;;;;;;;1.15;1.05;;;18.00;52.60;;;;;;5114634;28;20047;-11
2022/11/07 01:56:37;;;;;;;1.10;0.80;;;18.00;52.60;;;;;;5113819;28;20491;-11
2022/11/07 01:59:04;;;;;;;1.10;1.00;;;18.00;52.60;;;;;;5113920;28;20138;-11
2022/11/07 02:01:29;;;;;;;0.65;0.65;;;18.00;52.60;;;;;;5113268;28;20108;-11
2022/11/07 02:03:57;;;;;;;1.10;0.90;;;18.00;52.60;;;;;;5113949;28;20452;-11
2022/11/07 02:06:34;;;;;;;1.00;0.90;;;18.00;52.60;;;;;;5113589;28;20142;-11
2022/11/07 02:08:59;;;;;;;1.00;0.90;;;18.00;52.60;;;;;;5113832;28;20403;-11
2022/11/07 02:11:26;;;;;;;0.93;0.77;;;18.00;52.60;;;;;;5111955;28;20048;-11
2022/11/07 02:13:53;;;;;;;0.57;0.57;;;18.00;52.70;;;;;;5113694;28;20059;-11
2022/11/07 02:16:19;;;;;;;1.00;0.82;;;18.00;52.60;;;;;;5113791;28;20048;-11
2022/11/07 02:18:47;;;;;;;0.80;0.80;;;18.00;52.60;;;;;;5113947;28;20059;-11
2022/11/07 02:21:34;;;;;;;1.02;0.93;;;18.00;52.70;;;;;;5113581;28;20138;-11
2022/11/07 02:24:10;;;;;;;0.90;0.90;;;18.00;52.70;;;;;;5113630;28;20051;-11
2022/11/07 02:26:37;;;;;;;0.80;0.80;;;18.00;52.70;;;;;;5113697;28;20138;-11
2022/11/07 02:29:06;;;;;;;0.85;0.85;;;18.00;52.60;;;;;;5113204;28;20079;-11
2022/11/07 02:31:32;;;;;;;0.70;0.70;;;18.00;52.70;;;;;;5113912;28;20055;-11
2022/11/07 02:33:58;;;;;;;0.88;0.88;;;18.00;52.70;;;;;;5113698;28;20052;-11
2022/11/07 02:36:24;;;;;;;1.08;0.98;;;18.00;52.70;;;;;;5113408;28;20055;-11
2022/11/07 02:38:56;;;;;;;0.95;0.95;;;18.00;52.70;;;;;;5093637;28;20411;-11
2022/11/07 02:41:28;;;;;;;0.75;0.70;;;18.00;52.60;;;;;;5113284;28;20488;-11
2022/11/07 02:44:04;;;;;;;0.80;0.80;;;18.00;52.60;;;;;;5113372;28;20094;-11
2022/11/07 02:46:31;;;;;;;0.63;0.63;;;18.00;52.60;;;;;;5113528;28;20100;-11
2022/11/07 02:48:59;;;;;;;0.80;0.80;;;18.00;52.60;;;;;;5112987;28;20058;-11
2022/11/07 02:51:24;;;;;;;1.65;0.90;;;18.00;52.60;;;;;;5113103;28;20048;-11
2022/11/07 02:53:52;;;;;;;0.82;0.82;;;18.00;52.60;;;;;;5113220;28;20483;-11
2022/11/07 02:56:19;;;;;;;1.05;1.00;;;18.00;52.60;;;;;;5113072;28;20044;-11
2022/11/07 02:58:45;;;;;;;0.95;0.85;;;18.00;52.60;;;;;;5113058;28;20100;-11
2022/11/07 03:01:14;;;;;;;1.30;0.85;;;18.00;52.70;;;;;;5113034;28;20101;-11
2022/11/07 03:03:47;;;;;;;0.80;0.80;;;18.00;52.70;;;;;;5094633;28;20047;-11
2022/11/07 03:06:17;;;;;;;0.90;0.90;;;18.00;52.60;;;;;;5112954;28;20138;-11
2022/11/07 03:08:42;;;;;;;0.75;0.75;;;18.00;52.70;;;;;;5113292;28;20188;-11
2022/11/07 03:11:09;;;;;;;0.88;0.88;;;18.00;52.60;;;;;;5112724;28;20143;-11
2022/11/07 03:13:35;;;;;;;1.40;0.98;;;18.00;52.60;;;;;;5113407;28;20055;-11
2022/11/07 03:16:06;;;;;;;1.20;0.82;;;18.00;52.70;;;;;;5116446;28;20184;-11
2022/11/07 03:18:32;;;;;;;0.80;0.80;;;18.00;52.60;;;;;;5116054;28;20051;-11
2022/11/07 03:20:58;;;;;;;0.73;0.73;;;18.00;52.60;;;;;;5116637;28;20556;-11
2022/11/07 03:23:23;;;;;;;0.57;0.57;;;18.00;52.60;;;;;;5116412;28;20055;-11
2022/11/07 03:25:49;;;;;;;0.70;0.70;;;18.00;52.60;;;;;;5116278;28;20051;-11
2022/11/07 03:28:15;;;;;;;0.73;0.73;;;18.00;52.60;;;;;;5116433;28;20059;-11
2022/11/07 03:30:40;;;;;;;1.25;0.77;;;18.00;52.60;;;;;;5116167;28;20510;-11
2022/11/07 03:33:06;;;;;;;0.70;0.70;;;18.00;52.70;;;;;;5116761;28;20077;-11
2022/11/07 03:35:32;;;;;;;0.70;0.70;;;18.00;52.70;;;;;;5116256;28;20047;-11
2022/11/07 03:37:57;;;;;;;0.93;0.77;;;18.00;52.60;;;;;;5116265;28;20051;-11
2022/11/07 03:40:23;;;;;;;0.68;0.68;;;18.00;52.60;;;;;;5116464;28;20492;-11
2022/11/07 03:42:48;;;;;;;0.80;0.80;;;18.00;52.60;;;;;;5116561;28;20058;-11
2022/11/07 03:45:15;;;;;;;1.00;0.93;;;18.00;52.60;;;;;;5116182;28;20055;-11
2022/11/07 03:47:42;;;;;;;1.33;1.00;;;18.00;52.60;;;;;;5116011;28;20398;-11
2022/11/07 03:50:11;;;;;;;0.77;0.77;;;18.00;52.60;;;;;;5116039;28;20419;-11
2022/11/07 03:52:37;;;;;;;0.80;0.80;;;18.00;52.50;;;;;;5116056;28;20115;-11
2022/11/07 03:55:03;;;;;;;0.80;0.80;;;18.10;52.50;;;;;;5115989;28;20052;-11
2022/11/07 03:57:28;;;;;;;1.08;0.98;;;18.10;52.40;;;;;;5115919;28;20082;-11
2022/11/07 03:59:54;;;;;;;0.75;0.75;;;18.10;52.30;;;;;;5115778;28;20101;-11
2022/11/07 04:02:21;;;;;;;0.65;0.65;;;18.20;52.20;;;;;;5116380;28;20133;-11
2022/11/07 04:04:47;;;;;;;0.70;0.70;;;18.20;52.20;;;;;;5116143;28;20059;-11
2022/11/07 04:07:13;;;;;;;0.65;0.60;;;18.30;52.10;;;;;;5115667;28;20044;-11
2022/11/07 04:09:38;;;;;;;0.88;0.88;;;18.30;52.00;;;;;;5115672;28;20060;-11
2022/11/07 04:17:33;;;;;;;0.80;0.80;;;18.40;51.60;;;;;;5116092;28;20050;-12
2022/11/07 04:19:58;;;;;;;0.88;0.88;;;18.50;51.50;;;;;;5115608;28;20043;-11
2022/11/07 04:22:25;;;;;;;0.77;0.77;;;18.50;51.30;;;;;;5115449;28;20142;-11
2022/11/07 04:24:50;;;;;;;0.70;0.70;;;18.60;51.20;;;;;;5114779;28;20518;-11
2022/11/07 04:30:22;;;;;;;0.80;0.80;;;18.70;51.00;;;;;;5116049;28;20044;-11
2022/11/07 04:32:49;;;;;;;0.70;0.70;;;18.70;50.90;;;;;;5115756;28;20063;-11
2022/11/07 04:35:15;;;;;;;1.13;1.02;;;18.80;50.90;;;;;;5114452;28;20492;-11
2022/11/07 04:37:41;;;;;;;0.80;0.80;;;18.80;50.80;;;;;;5115085;28;20059;-11
2022/11/07 04:40:08;;;;;;;0.68;0.68;;;18.80;50.70;;;;;;5115500;28;20044;-11
2022/11/07 04:42:34;;;;;;;0.82;0.80;;;18.90;50.70;;;;;;5115123;28;20047;-11
2022/11/07 04:45:00;;;;;;;0.70;0.70;;;18.90;50.60;;;;;;5115147;28;20138;-11
2022/11/07 04:47:25;;;;;;;1.00;0.90;;;18.90;50.50;;;;;;5114726;28;20051;-11
2022/11/07 04:49:51;;;;;;;0.70;0.70;;;18.90;50.50;;;;;;5115049;28;20039;-11
2022/11/07 04:52:16;;;;;;;0.80;0.70;;;19.00;50.50;;;;;;5115036;28;20506;-11
2022/11/07 04:54:42;;;;;;;0.80;0.80;;;19.00;50.40;;;;;;5115573;28;21327;-11
2022/11/07 04:57:07;;;;;;;0.70;0.70;;;19.00;50.40;;;;;;5114752;28;20411;-11
2022/11/07 04:59:33;;;;;;;1.00;0.73;;;19.00;50.40;;;;;;5114907;28;20399;-11
2022/11/07 05:02:00;;;;;;;0.80;0.80;;;19.00;50.40;;;;;;5115512;28;20539;-11
2022/11/07 05:04:25;;;;;;;0.70;0.70;;;19.00;50.40;;;;;;5115101;28;20407;-11
2022/11/07 05:06:51;;;;;;;0.90;0.90;;;19.00;50.40;;;;;;5114747;28;20047;-11
2022/11/07 05:09:17;;;;;;;0.80;0.80;;;19.00;50.40;;;;;;5114850;28;20056;-11
2022/11/07 05:11:44;;;;;;;0.70;0.70;;;19.00;50.50;;;;;;5115001;28;20056;-11
2022/11/07 05:14:10;;;;;;;0.70;0.70;;;19.00;50.40;;;;;;5114575;28;20059;-11
2022/11/07 05:16:37;;;;;;;0.70;0.70;;;19.00;50.40;;;;;;5114672;28;20531;-11
2022/11/07 05:19:03;;;;;;;0.77;0.70;;;18.90;50.40;;;;;;5114841;28;20054;-11
2022/11/07 05:21:29;;;;;;;0.90;0.80;;;18.90;50.50;;;;;;5114418;28;20051;-11
2022/11/07 05:23:55;;;;;;;1.02;0.80;;;18.90;50.50;;;;;;5115039;28;20059;-11
2022/11/07 05:26:22;;;;;;;0.80;0.75;;;18.90;50.60;;;;;;5114406;28;20558;-11
2022/11/07 05:28:49;;;;;;;0.80;0.80;;;18.90;50.60;;;;;;5114753;28;20052;-11
2022/11/07 05:31:17;;;;;;;1.00;0.90;;;18.90;50.60;;;;;;5114584;28;20058;-11
2022/11/07 05:33:43;;;;;;;0.85;0.80;;;18.90;50.70;;;;;;5114184;28;20100;-11
2022/11/07 05:36:09;;;;;;;0.85;0.80;;;18.80;50.60;;;;;;5113094;28;20463;-11
2022/11/07 05:38:35;;;;;;;0.98;0.90;;;18.80;50.70;;;;;;5113859;28;20059;-11
2022/11/07 05:41:03;;;;;;;1.10;1.00;;;18.80;50.70;;;;;;5114130;28;20509;-11
2022/11/07 05:43:29;;;;;;;0.75;0.75;;;18.80;50.70;;;;;;5114322;28;20108;-11
2022/11/07 05:45:59;;;;;;;0.70;0.70;;;18.80;50.70;;;;;;5114424;28;20044;-11
2022/11/07 05:48:25;;;;;;;0.80;0.80;;;18.80;50.70;;;;;;5114426;28;20053;-11
2022/11/07 05:50:50;;;;;;;1.20;1.00;;;18.80;50.60;;;;;;5114388;28;20047;-11
2022/11/07 05:53:16;;;;;;;0.80;0.80;;;18.80;50.60;;;;;;5113778;28;20047;-11
2022/11/07 05:55:42;;;;;;;1.10;1.00;;;18.80;50.70;;;;;;5114002;28;20051;-11
2022/11/07 05:58:09;;;;;;;1.60;0.93;;;18.80;50.60;;;;;;5114510;28;20491;-11
2022/11/07 06:00:35;;;;;;;0.77;0.75;;;18.80;50.60;;;;;;5114127;28;20538;-11
2022/11/07 06:03:01;;;;;;;0.60;0.60;;;18.80;50.60;;;;;;5114078;28;20099;-11
2022/11/07 06:05:27;;;;;;;0.90;0.90;;;18.80;50.70;;;;;;5114160;28;20052;-11
2022/11/07 06:07:53;;;;;;;1.35;0.63;;;18.80;50.70;;;;;;5113704;28;20142;-11
2022/11/07 06:10:19;;;;;;;0.90;0.80;;;18.80;50.80;;;;;;5113760;28;20116;-11
2022/11/07 06:12:45;;;;;;;1.38;0.95;;;18.80;50.80;;;;;;5114107;28;20051;-11
2022/11/07 06:15:11;;;;;;;0.95;0.90;;;18.80;50.80;;;;;;5114241;28;20055;-11
2022/11/07 06:17:37;;;;;;;0.98;0.80;;;18.80;50.70;;;;;;5113652;28;20518;-11
2022/11/07 06:20:03;;;;;;;1.08;0.70;;;18.80;50.70;;;;;;5113615;28;20134;-11
2022/11/07 06:22:29;;;;;;;1.08;0.95;;;18.80;50.70;;;;;;5113510;28;20388;-11
2022/11/07 06:24:56;;;;;;;0.70;0.70;;;18.80;50.80;;;;;;5113824;28;20055;-11
2022/11/07 06:27:22;;;;;;;0.70;0.70;;;18.80;50.80;;;;;;5113927;28;20039;-11
2022/11/07 06:29:47;;;;;;;0.82;0.82;;;18.80;50.80;;;;;;5113470;28;20488;-11
2022/11/07 06:32:13;;;;;;;0.93;0.85;;;18.80;50.80;;;;;;5113699;28;20138;-11
2022/11/07 06:34:38;;;;;;;0.80;0.80;;;18.80;50.80;;;;;;5113677;28;20043;-11
2022/11/07 06:37:04;;;;;;;0.80;0.80;;;18.80;50.80;;;;;;5113670;28;20048;-11
2022/11/07 06:39:29;;;;;;;0.90;0.90;;;18.80;50.80;;;;;;5113282;28;20415;-11
2022/11/07 06:41:55;;;;;;;1.05;0.90;;;18.80;50.80;;;;;;5113255;28;20047;-11
2022/11/07 06:44:21;;;;;;;1.05;0.82;;;18.80;50.80;;;;;;5113559;28;20055;-11
2022/11/07 06:46:46;;;;;;;1.55;1.00;;;18.80;50.70;;;;;;5113263;28;20047;-11
2022/11/07 06:49:14;;;;;;;0.85;0.77;;;18.80;50.70;;;;;;5113145;28;20056;-11
2022/11/07 06:51:40;;;;;;;1.10;0.90;;;18.80;50.80;;;;;;5113114;28;20496;-11
2022/11/07 06:54:05;;;;;;;1.33;0.98;;;18.80;50.70;;;;;;5112971;28;20079;-11
2022/11/07 06:56:31;;;;;;;0.70;0.70;;;18.80;50.70;;;;;;5112959;28;20078;-12
2022/11/07 06:58:57;;;;;;;1.10;0.98;;;18.80;50.70;;;;;;5113288;28;20055;-11
2022/11/07 07:01:23;;;;;;;1.50;0.90;;;18.80;50.60;;;;;;5113330;28;20052;-11
2022/11/07 07:03:50;;;;;;;0.82;0.82;;;18.90;50.60;;;;;;5113183;28;20052;-11
2022/11/07 07:06:19;;;;;;;0.95;0.80;;;18.90;50.60;;;;;;5113066;28;20036;-11
2022/11/07 07:08:45;;;;;;;1.25;0.95;;;19.00;50.50;;;;;;5112691;28;20057;-11
2022/11/07 07:11:13;;;;;;;1.13;0.80;;;19.00;50.40;;;;;;5112623;28;20048;-11
2022/11/07 07:13:39;;;;;;;0.93;0.90;;;19.00;50.30;;;;;;5112282;28;20058;-11
2022/11/07 07:16:05;;;;;;;0.90;0.90;;;19.10;50.20;;;;;;5112845;28;20059;-11
2022/11/07 07:18:31;;;;;;;0.90;0.90;;;19.10;50.20;;;;;;5111952;28;20060;-11
2022/11/07 07:21:05;;;;;;;2.05;1.10;;;19.10;50.20;;;;;;5112316;28;20080;-11
2022/11/07 07:23:33;;;;;;;1.02;0.80;;;19.10;50.20;;;;;;5112162;28;20107;-11
2022/11/07 07:26:00;;;;;;;1.00;0.90;;;19.10;50.20;;;;;;5111924;28;20129;-11
2022/11/07 07:28:26;;;;;;;1.00;0.90;;;19.20;50.20;;;;;;5112132;28;20131;-11
2022/11/07 07:30:52;;;;;;;0.95;0.75;;;19.20;50.20;;;;;;5112092;28;20574;-11
2022/11/07 07:33:19;;;;;;;1.05;0.80;;;19.10;50.10;;;;;;5112383;28;20059;-11
2022/11/07 07:35:44;;;;;;;1.00;1.00;;;19.10;50.10;;;;;;5112027;28;20055;-11
2022/11/07 07:38:10;;;;;;;1.23;1.10;;;19.10;50.10;;;;;;5112083;28;20049;-11
2022/11/07 07:40:36;;;;;;;1.10;0.98;;;19.10;50.20;;;;;;5112044;28;20079;-11
2022/11/07 07:43:02;;;;;;;1.10;0.80;;;19.10;50.20;;;;;;5112397;28;20130;-11
2022/11/07 07:45:27;;;;;;;1.13;1.02;;;19.10;50.20;;;;;;5110952;28;20056;-11
2022/11/07 07:47:59;;;;;;;2.15;1.00;;;19.10;50.30;;;;;;5111958;28;20445;-11
2022/11/07 07:50:24;;;;;;;1.10;1.00;;;19.10;50.30;;;;;;5112465;28;20058;-11
2022/11/07 07:52:57;;;;;;;1.83;1.20;;;19.10;50.30;;;;;;5111893;28;20047;-11
2022/11/07 07:55:23;;;;;;;1.38;1.10;;;19.10;50.20;;;;;;5111860;28;20142;-11
2022/11/07 07:57:49;;;;;;;1.88;1.00;;;19.10;50.20;;;;;;5111840;28;20051;-11
2022/11/07 08:00:15;;;;;;;0.95;0.95;;;19.10;50.20;;;;;;5094802;28;20095;-11
2022/11/07 08:02:42;;;;;;;1.10;1.00;;;19.10;50.20;;;;;;5115206;28;20059;-11
2022/11/07 08:05:10;;;;;;;1.67;1.10;;;19.10;50.30;;;;;;5115313;28;20051;-11
2022/11/07 08:07:35;;;;;;;1.08;0.98;;;19.00;50.30;;;;;;5115045;28;20039;-11
2022/11/07 08:10:01;;;;;;;1.30;1.02;;;19.00;50.40;;;;;;5115279;28;20877;-11
2022/11/07 08:12:26;;;;;;;1.15;1.00;;;19.00;50.40;;;;;;5114871;28;20047;-11
2022/11/07 08:14:52;;;;;;;1.15;1.05;;;19.00;50.40;;;;;;5115052;28;20062;-11
2022/11/07 08:17:17;;;;;;;0.80;0.80;;;19.00;50.50;;;;;;5115077;28;20110;-11
2022/11/07 08:19:43;;;;;;;0.85;0.85;;;19.00;50.40;;;;;;5114679;28;20063;-11
2022/11/07 08:22:10;;;;;;;1.02;0.90;;;19.00;50.40;;;;;;5114963;28;20053;-11
2022/11/07 08:24:35;;;;;;;1.10;0.88;;;19.00;50.40;;;;;;5114912;28;20048;-11
2022/11/07 08:27:01;;;;;;;0.80;0.70;;;19.00;50.40;;;;;;5114777;28;20123;-11
2022/11/07 08:29:27;;;;;;;1.25;1.02;;;19.00;50.40;;;;;;5114694;28;20061;-11
2022/11/07 08:31:52;;;;;;;1.15;1.00;;;19.10;50.50;;;;;;5096398;28;20096;-11
2022/11/07 08:34:18;;;;;;;1.55;1.10;;;19.00;50.40;;;;;;5114825;28;20075;-11
2022/11/07 08:36:43;;;;;;;1.20;0.95;;;19.10;50.40;;;;;;5114800;28;20040;-11
2022/11/07 08:39:09;;;;;;;2.42;1.10;;;19.10;50.40;;;;;;5114719;28;20085;-11
2022/11/07 08:41:35;;;;;;;1.38;1.10;;;19.10;50.40;;;;;;5114764;28;20063;-11
2022/11/07 08:44:00;;;;;;;1.00;1.00;;;19.10;50.40;;;;;;5113274;28;20526;-11
2022/11/07 08:46:27;;;;;;;1.05;1.00;;;19.10;50.40;;;;;;5114563;28;20055;-11
2022/11/07 08:48:54;;;;;;;1.10;1.00;;;19.10;50.40;;;;;;5114477;28;20051;-11
2022/11/07 08:51:21;;;;;;;1.52;0.90;;;19.10;50.40;;;;;;5114939;28;20079;-11
2022/11/07 08:53:47;;;;;;;2.08;1.08;;;19.10;50.50;;;;;;5114615;28;20104;-11
2022/11/07 08:56:13;;;;;;;1.20;1.10;;;19.00;50.50;;;;;;5114347;28;20048;-11
2022/11/07 08:58:38;;;;;;;1.10;1.00;;;19.00;50.50;;;;;;5114017;28;20053;-11
2022/11/07 09:01:09;;;;;;;1.40;1.00;;;19.00;50.50;;;;;;5114198;28;20112;-11
2022/11/07 09:03:36;;;;;;;2.58;1.30;;;19.10;50.50;;;;;;5113934;28;20054;-11
2022/11/07 09:06:03;;;;;;;1.30;1.10;;;19.10;50.40;;;;;;5113757;28;20051;-10
2022/11/07 09:08:31;;;;;;;1.20;1.10;;;19.10;50.40;;;;;;5113920;28;20470;-10
2022/11/07 09:11:03;;;;;;;1.65;1.20;;;19.10;50.50;;;;;;5113896;28;20134;-10
2022/11/07 09:13:30;;;;;;;1.17;1.00;;;19.10;50.40;;;;;;5114071;28;20389;-10
2022/11/07 09:15:58;;;;;;;1.80;1.13;;;19.10;50.30;;;;;;5113786;28;20104;-10
2022/11/07 09:18:25;;;;;;;1.33;1.20;;;19.10;50.40;;;;;;5113612;28;20071;-10
2022/11/07 09:20:51;;;;;;;1.67;1.00;;;19.10;50.40;;;;;;5113841;28;20051;-10
2022/11/07 09:23:17;;;;;;;1.75;1.17;;;19.10;50.30;;;;;;5114106;28;20050;-11
2022/11/07 09:25:43;;;;;;;1.05;0.98;;;19.20;50.40;;;;;;5114000;28;20204;-10
2022/11/07 09:28:09;;;;;;;1.35;1.15;;;19.10;50.30;;;;;;5112452;28;20048;-11
2022/11/07 09:30:34;;;;;;;1.15;0.90;;;19.20;50.30;;;;;;5114172;28;20566;-10
2022/11/07 09:33:00;;;;;;;1.52;1.00;;;19.10;50.30;;;;;;5113585;28;20138;-10
2022/11/07 09:35:26;;;;;;;1.88;1.30;;;19.20;50.40;;;;;;5113847;28;20059;-10
2022/11/07 09:37:52;;;;;;;1.60;1.10;;;19.10;50.30;;;;;;5113801;28;20384;-10
2022/11/07 09:40:18;;;;;;;1.92;1.40;;;19.10;50.30;;;;;;5113654;28;20063;-10
2022/11/07 09:43:16;;;;;;;2.88;1.15;;;19.20;50.30;;;;;;5113967;28;20072;-10
2022/11/07 09:46:14;;;;;;;1.17;1.08;;;19.10;50.30;;;;;;5113833;28;20047;-10
2022/11/07 09:48:48;;;;;;;1.10;1.00;;;19.20;50.30;;;;;;5113677;28;20066;-10
2022/11/07 09:51:31;;;;;;;1.48;1.05;;;19.20;50.80;;;;;;5112582;28;20047;-11
2022/11/07 09:54:02;;;;;;;1.55;1.08;;;19.20;50.30;;;;;;5113324;28;20047;-10
2022/11/07 09:56:31;;;;;;;1.10;1.00;;;19.20;50.20;;;;;;5113426;28;20058;-11
2022/11/07 09:59:03;;;;;;;1.38;1.00;;;19.20;50.20;;;;;;5113275;28;20055;-10
2022/11/07 10:01:31;;;;;;;2.05;1.27;;;19.20;50.30;;;;;;5113280;28;20451;-10
2022/11/07 10:03:58;;;;;;;3.60;1.60;;;19.20;50.20;;;;;;5113320;28;20425;-11
2022/11/07 10:06:44;;;;;;;1.65;1.23;;;19.20;50.30;;;;;;5113028;28;20047;-10
2022/11/07 10:09:15;;;;;;;1.20;1.10;;;19.20;50.30;;;;;;5112802;28;20051;-10
2022/11/07 10:11:47;;;;;;;;;;;19.20;50.30;;;;;;5113729;28;20051;-11
2022/11/07 10:14:40;;;;;;;1.23;1.10;;;19.20;50.30;;;;;;5113004;28;19938;-11
2022/11/07 10:17:27;;;;;;;1.20;1.10;;;19.20;50.30;;;;;;5112843;28;20073;-11
2022/11/07 10:20:11;;;;;;;1.67;1.25;;;19.20;50.20;;;;;;5112954;28;20055;-10
2022/11/07 10:23:01;;;;;;;1.13;1.00;;;19.20;50.30;;;;;;5112520;28;20083;-10
2022/11/07 10:25:34;;;;;;;1.75;1.13;;;19.20;50.30;;;;;;5113320;28;20402;-10
2022/11/07 10:28:06;;;;;;;1.77;1.10;;;19.20;50.30;;;;;;5112981;28;20141;-11
2022/11/07 10:30:33;;;;;;;0.90;0.90;;;19.20;50.30;;;;;;5113364;28;20043;-10
2022/11/07 10:33:37;;;;;;;1.48;1.10;;;19.20;50.30;;;;;;5112907;28;20085;-10
2022/11/07 10:36:25;;;;;;;2.08;1.40;;;19.20;50.40;;;;;;5010060;28;20176;-10
2022/11/07 10:38:51;;;;;;;2.70;1.60;;;19.20;50.40;;;;;;5107897;28;20059;-11
2022/11/07 10:41:24;;;;;;;1.83;1.08;;;19.20;50.40;;;;;;5112861;28;20073;-10
2022/11/07 10:44:06;;;;;;;3.38;1.30;;;19.20;50.40;;;;;;5112772;28;20066;-10
2022/11/07 10:46:37;;;;;;;1.20;1.10;;;19.20;50.30;;;;;;5109336;28;20184;-10
2022/11/07 10:49:15;;;;;;;1.83;1.40;;;19.20;50.30;;;;;;5109101;28;20435;-10
2022/11/07 10:51:42;;;;;;;2.78;1.38;;;19.20;50.30;;;;;;5112804;28;20055;-10
2022/11/07 10:54:18;;;;;;;2.03;1.20;;;19.20;50.30;;;;;;5112990;28;20480;-10
2022/11/07 10:56:47;;;;;;;1.55;1.20;;;19.20;50.30;;;;;;5112971;28;20048;-10
2022/11/07 10:59:24;;;;;;;1.20;1.10;;;19.20;50.30;;;;;;5112881;28;20388;-10
2022/11/07 11:01:57;;;;;;;1.73;1.40;;;19.20;50.30;;;;;;5112637;28;20076;-10
2022/11/07 11:04:25;;;;;;;1.77;1.38;;;19.20;50.30;;;;;;5112868;28;20103;-10
2022/11/07 11:07:03;;;;;;;2.03;1.30;;;19.20;50.30;;;;;;5112327;28;20055;-10
2022/11/07 11:09:31;;;;;;;1.90;1.50;;;19.20;50.30;;;;;;5112570;28;20109;-11
2022/11/07 11:11:57;;;;;;;1.45;1.10;;;19.20;50.30;;;;;;5094606;28;20391;-11
2022/11/07 11:14:24;;;;;;;2.00;1.23;;;19.20;50.30;;;;;;5112550;28;20470;-11
2022/11/07 11:16:54;;;;;;;2.33;1.40;;;19.20;50.30;;;;;;5112357;28;20059;-11
2022/11/07 11:19:32;;;;;;;4.15;1.45;;;19.20;50.40;;;;;;5112405;28;20189;-12
2022/11/07 11:21:58;;;;;;;1.30;1.15;;;19.20;50.40;;;;;;5112730;28;20486;-11
2022/11/07 11:24:29;;;;;;;2.47;1.10;;;19.20;50.40;;;;;;5112299;28;20120;-12
2022/11/07 11:26:59;;;;;;;3.77;1.40;;;19.20;50.50;;;;;;5112279;28;20043;-11
2022/11/07 11:29:33;;;;;;;1.80;1.20;;;19.20;50.50;;;;;;5112991;28;20043;-11
2022/11/07 11:32:00;;;;;;;3.83;1.20;;;19.20;50.40;;;;;;5112456;28;20047;-11
2022/11/07 11:34:44;;;;;;;1.48;1.08;;;19.20;50.50;;;;;;5113317;28;20116;-11
2022/11/07 11:37:20;;;;;;;1.77;1.20;;;19.20;50.50;;;;;;5115858;28;20044;-12
2022/11/07 11:39:54;;;;;;;1.90;1.40;;;19.20;50.50;;;;;;5116452;28;20124;-11
2022/11/07 11:42:50;;;;;;;2.10;1.20;;;19.20;50.50;;;;;;5115802;28;20059;-11
2022/11/07 11:45:36;;;;;;;1.58;1.20;;;19.20;50.50;;;;;;5115905;28;20518;-11
2022/11/07 11:48:22;;;;;;;2.80;1.35;;;19.20;50.60;;;;;;5115927;28;20476;-12
2022/11/07 11:50:53;;;;;;;1.73;1.17;;;19.10;50.50;;;;;;5115691;28;20066;-11
2022/11/07 11:53:21;;;;;;;2.47;1.65;;;19.20;50.60;;;;;;5115938;28;20419;-12
2022/11/07 11:56:20;;;;;;;1.25;1.15;;;19.20;50.60;;;;;;5115644;28;20048;-12
2022/11/07 11:59:07;;;;;;;2.20;1.08;;;19.10;50.50;;;;;;5075144;28;20529;-12
2022/11/07 12:01:54;;;;;;;1.95;1.20;;;19.20;50.60;;;;;;5115910;28;20080;-11
2022/11/07 12:04:41;;;;;;;1.70;1.17;;;19.20;50.60;;;;;;5115400;28;20460;-9
2022/11/07 12:07:47;;;;;;;1.45;1.20;;;19.20;50.50;;;;;;5115265;28;20043;-10
2022/11/07 12:10:24;;;;;;;1.45;1.10;;;19.20;50.50;;;;;;5115568;28;20047;-11
2022/11/07 12:13:08;;;;;;;1.65;1.10;;;19.20;50.50;;;;;;5115518;28;20077;-12
2022/11/07 12:15:50;;;;;;;2.55;1.50;;;19.20;50.50;;;;;;5115570;28;20051;-12
2022/11/07 12:18:34;;;;;;;1.23;1.10;;;19.20;50.50;;;;;;5115701;28;20112;-11
2022/11/07 12:21:21;;;;;;;1.30;1.20;;;19.20;50.50;;;;;;5115506;28;20039;-11
2022/11/07 12:24:06;;;;;;;1.67;1.23;;;19.20;50.60;;;;;;5115787;28;20181;-11
2022/11/07 12:26:47;;;;;;;1.50;1.40;;;19.20;50.60;;;;;;5115446;28;20101;-11
2022/11/07 12:29:30;;;;;;;2.42;1.30;;;19.10;50.60;;;;;;5115613;28;20071;-12
2022/11/07 12:32:17;;;;;;;1.45;1.27;;;19.10;50.60;;;;;;5115252;28;20055;-11
2022/11/07 12:35:01;;;;;;;2.00;1.40;;;19.10;50.60;;;;;;5115635;28;20051;-12
2022/11/07 12:37:51;;;;;;;3.63;1.42;;;19.20;50.70;;;;;;5113670;28;20047;-11
2022/11/07 12:40:33;;;;;;;2.17;1.20;;;19.20;50.70;;;;;;5115028;28;20062;-11
2022/11/07 12:43:16;;;;;;;1.27;1.17;;;19.20;50.70;;;;;;5114943;28;20154;-12
2022/11/07 12:46:06;;;;;;;1.92;1.33;;;19.20;50.70;;;;;;5114312;28;20047;-11
2022/11/07 12:49:11;;;;;;;2.83;1.52;;;19.10;50.60;;;;;;5114929;28;20396;-11
2022/11/07 12:51:53;;;;;;;1.95;1.10;;;19.20;50.70;;;;;;5114977;28;20051;-11
2022/11/07 12:54:32;;;;;;;1.20;1.10;;;19.20;50.70;;;;;;5115144;28;20397;-11
2022/11/07 12:57:05;;;;;;;2.40;1.30;;;19.10;50.70;;;;;;5115403;28;20137;-12
2022/11/07 12:59:32;;;;;;;2.88;1.40;;;19.10;50.70;;;;;;5115120;28;20051;-12
2022/11/07 13:02:15;;;;;;;1.35;1.20;;;19.10;50.70;;;;;;5114713;28;20096;-11
2022/11/07 13:04:52;;;;;;;1.20;0.95;;;19.10;50.70;;;;;;5114519;28;20479;-11
2022/11/07 13:07:33;;;;;;;2.35;1.27;;;19.10;50.70;;;;;;5114796;28;20047;-11
2022/11/07 13:10:15;;;;;;;1.80;1.30;;;19.10;50.70;;;;;;5114901;28;20134;-9
2022/11/07 13:12:56;;;;;;;1.70;1.20;;;19.10;50.70;;;;;;5114425;28;20395;-10
2022/11/07 13:15:22;;;;;;;2.25;1.30;;;19.10;50.70;;;;;;5114262;28;20083;-9
2022/11/07 13:17:48;;;;;;;2.20;1.30;;;19.10;50.70;;;;;;5114124;28;20059;-9